createdAt,value
2018-12-21T13:47:47.405Z,27.65
2018-12-21T13:53:50.876Z,30.57
2018-12-21T13:59:54.320Z,29.98
2018-12-21T14:05:57.760Z,24.92
2018-12-21T14:12:01.200Z,25.50
2018-12-21T14:18:05.059Z,26.80
2018-12-21T14:24:08.533Z,28.50
2018-12-21T14:30:12.707Z,23.05
2018-12-21T14:36:16.173Z,30.50
2018-12-21T14:42:19.585Z,36.03
2018-12-21T14:48:22.998Z,29.92
2018-12-21T14:54:26.437Z,31.37
2018-12-21T15:00:29.977Z,30.48
2018-12-21T15:06:33.405Z,33.80
2018-12-21T15:12:36.834Z,33.28
2018-12-21T15:18:47.214Z,26.65
2018-12-21T15:24:51.029Z,33.33
2018-12-21T15:30:54.515Z,41.63
2018-12-21T15:36:58.031Z,35.73
2018-12-21T15:43:02.325Z,65.05
2018-12-21T15:49:05.766Z,43.25
2018-12-21T15:55:09.230Z,43.17
2018-12-21T16:01:12.955Z,53.40
2018-12-21T16:07:16.427Z,33.75
2018-12-21T16:13:19.947Z,41.90
2018-12-21T16:19:23.398Z,42.38
2018-12-21T16:25:27.450Z,34.25
2018-12-21T16:31:31.502Z,48.98
2018-12-21T16:37:34.994Z,37.13
2018-12-21T16:43:38.469Z,37.10
2018-12-21T16:49:41.925Z,44.80
2018-12-21T16:55:45.507Z,47.67
2018-12-21T17:01:48.949Z,31.52
2018-12-21T17:07:52.537Z,48.50
2018-12-21T17:13:56.779Z,41.33
2018-12-21T17:20:00.206Z,49.95
2018-12-21T17:26:03.780Z,37.73
2018-12-21T17:32:07.338Z,42.03
2018-12-21T17:38:10.826Z,38.23
2018-12-21T17:44:14.284Z,46.35
2018-12-21T17:50:17.696Z,38.42
2018-12-21T17:56:29.686Z,44.27
2018-12-21T18:02:26.550Z,39.30
2018-12-21T18:08:29.948Z,35.68
2018-12-21T18:14:33.382Z,38.10
2018-12-21T18:20:36.799Z,42.58
2018-12-21T18:26:40.400Z,37.45
2018-12-21T18:32:43.828Z,33.88
2018-12-21T18:38:47.304Z,41.05
2018-12-21T18:44:50.802Z,46.63
2018-12-21T18:50:54.318Z,35.73
2018-12-21T18:57:00.263Z,33.58
2018-12-21T19:03:03.706Z,38.20
2018-12-21T19:09:07.170Z,43.78
2018-12-21T19:15:11.441Z,33.10
2018-12-21T19:21:14.981Z,38.60
2018-12-21T19:27:18.663Z,36.90
2018-12-21T19:33:22.066Z,40.00
2018-12-21T19:39:25.532Z,35.30
2018-12-21T19:45:28.968Z,39.00
2018-12-21T19:51:32.454Z,40.38
2018-12-21T19:57:35.989Z,41.92
2018-12-21T20:03:39.413Z,43.13
2018-12-21T20:09:42.830Z,36.65
2018-12-21T20:15:46.264Z,37.63
2018-12-21T20:21:50.351Z,40.12
2018-12-21T20:27:54.463Z,32.70
2018-12-21T20:33:57.966Z,33.90
2018-12-21T20:40:01.543Z,36.73
2018-12-21T20:46:05.226Z,36.55
2018-12-21T20:52:08.696Z,34.15
2018-12-21T20:58:19.404Z,36.08
2018-12-21T21:04:24.311Z,31.87
2018-12-21T21:10:28.012Z,27.90
2018-12-21T21:16:31.859Z,35.30
2018-12-21T21:22:35.300Z,27.62
2018-12-21T21:28:38.880Z,33.20
2018-12-21T21:34:44.818Z,40.00
2018-12-21T21:40:48.612Z,31.60
2018-12-21T21:46:52.150Z,33.48
2018-12-21T21:52:55.627Z,30.88
2018-12-21T21:58:59.124Z,33.25
2018-12-21T22:05:02.671Z,34.40
2018-12-21T22:11:06.228Z,36.33
2018-12-21T22:17:09.684Z,32.80
2018-12-21T22:23:13.163Z,35.15
2018-12-21T22:29:16.621Z,36.83
2018-12-21T22:35:20.047Z,31.52
2018-12-21T22:41:23.596Z,35.03
2018-12-21T22:47:27.034Z,25.10
2018-12-21T22:53:31.086Z,26.25
2018-12-21T22:59:34.523Z,50.98
2018-12-21T23:05:37.939Z,117.45
2018-12-21T23:11:41.344Z,60.15
2018-12-21T23:17:44.763Z,79.35
2018-12-21T23:23:48.221Z,87.05
2018-12-21T23:29:51.663Z,97.92
2018-12-21T23:35:55.412Z,89.52
2018-12-21T23:41:59.099Z,78.97
2018-12-21T23:48:02.546Z,60.35
2018-12-21T23:54:05.965Z,70.80
